Time;durP1;ratioP1;P1;durP2;ratioP2;P2;SDS_P1;SDS_P2;PMS_P1;PMS_P2;Temp;Humidity;BMP_temperature;BMP_pressure;BME280_temperature;BME280_humidity;BME280_pressure;Samples;Min_cycle;Max_cycle;Signal;HPM_P1;HPM_P2
2022/05/24 00:02:08;;;;;;;15.57;8.98;;;13.60;99.90;;;;;;4987197;28;20046;-67
2022/05/24 00:04:34;;;;;;;15.57;8.68;;;13.50;99.90;;;;;;4912205;28;226330;-67
2022/05/24 00:07:01;;;;;;;14.30;8.40;;;13.40;99.90;;;;;;4960016;28;20073;-67
2022/05/24 00:09:27;;;;;;;14.20;7.55;;;13.40;99.90;;;;;;4940113;28;207422;-68
2022/05/24 00:11:54;;;;;;;16.33;7.70;;;13.30;99.90;;;;;;4973440;28;20046;-67
2022/05/24 00:15:19;;;;;;;14.05;7.40;;;13.20;99.90;;;;;;4931811;28;204633;-67
2022/05/24 00:17:07;;;;;;;14.48;7.90;;;13.10;99.90;;;;;;4991810;28;20051;-68
2022/05/24 00:19:34;;;;;;;14.20;7.07;;;13.10;99.90;;;;;;4937073;28;207092;-68
2022/05/24 00:22:00;;;;;;;16.27;6.72;;;13.10;99.90;;;;;;4980133;28;20058;-68
2022/05/24 00:24:26;;;;;;;13.48;6.50;;;13.00;99.90;;;;;;4934277;28;233246;-67
2022/05/24 00:26:52;;;;;;;13.60;6.30;;;13.00;99.90;;;;;;4993217;28;20558;-67
2022/05/24 00:29:18;;;;;;;12.48;6.65;;;13.00;99.90;;;;;;4909958;28;206519;-67
2022/05/24 00:31:44;;;;;;;15.05;6.60;;;13.00;99.90;;;;;;4979152;28;20419;-66
2022/05/24 00:34:11;;;;;;;13.98;7.10;;;13.00;99.90;;;;;;4922567;28;251181;-67
2022/05/24 00:36:37;;;;;;;14.82;6.60;;;13.00;99.90;;;;;;4970069;28;20059;-67
2022/05/24 00:39:03;;;;;;;12.38;6.75;;;12.90;99.90;;;;;;4920865;28;215498;-67
2022/05/24 00:41:55;;;;;;;13.90;7.05;;;12.90;99.90;;;;;;4982295;28;20359;-67
2022/05/24 00:44:55;;;;;;;12.88;7.53;;;12.90;99.90;;;;;;4932336;28;205821;-67
2022/05/24 00:47:30;;;;;;;15.15;7.80;;;12.80;99.90;;;;;;4944664;28;20055;-66
2022/05/24 00:50:07;;;;;;;13.43;7.95;;;12.80;99.90;;;;;;4893506;28;181028;-67
2022/05/24 00:52:49;;;;;;;14.68;8.30;;;12.80;99.90;;;;;;4951008;28;20504;-68
2022/05/24 00:55:21;;;;;;;14.90;8.23;;;12.80;99.90;;;;;;4892304;28;213551;-67
2022/05/24 00:58:19;;;;;;;16.25;8.05;;;12.70;99.90;;;;;;4968003;28;20062;-67
2022/05/24 01:00:45;;;;;;;13.27;7.70;;;12.70;99.90;;;;;;4897403;28;213658;-67
2022/05/24 01:03:12;;;;;;;15.98;7.90;;;12.60;99.90;;;;;;4964692;28;20420;-68
2022/05/24 01:05:38;;;;;;;14.77;7.88;;;12.60;99.90;;;;;;4870176;28;225570;-67
2022/05/24 01:08:04;;;;;;;13.60;7.80;;;12.70;99.90;;;;;;4990073;28;20069;-67
2022/05/24 01:10:33;;;;;;;15.40;7.65;;;12.70;99.90;;;;;;4889271;28;233585;-66
2022/05/24 01:13:07;;;;;;;14.45;7.75;;;12.70;99.90;;;;;;4991063;28;20319;-67
2022/05/24 01:15:34;;;;;;;14.40;6.97;;;12.70;99.90;;;;;;4936755;28;140197;-67
2022/05/24 01:18:01;;;;;;;14.63;7.22;;;12.60;99.90;;;;;;4963824;28;20057;-67
2022/05/24 01:20:27;;;;;;;14.13;6.20;;;12.60;99.90;;;;;;4922331;28;209965;-65
2022/05/24 01:22:57;;;;;;;12.82;6.40;;;12.60;99.90;;;;;;4972525;28;20046;-67
2022/05/24 01:25:51;;;;;;;13.27;6.63;;;12.60;99.90;;;;;;4940823;28;206779;-67
2022/05/24 01:28:34;;;;;;;13.82;6.97;;;12.60;99.90;;;;;;4996300;28;20093;-67
2022/05/24 01:31:02;;;;;;;13.05;6.20;;;12.60;99.90;;;;;;4941683;28;206429;-67
2022/05/24 01:36:14;;;;;;;14.18;6.43;;;12.70;99.90;;;;;;4967037;28;204935;-67
2022/05/24 01:38:46;;;;;;;11.63;6.25;;;12.70;99.90;;;;;;4989501;28;194557;-65
2022/05/24 01:41:23;;;;;;;12.98;6.55;;;12.70;99.90;;;;;;4957372;28;39566;-65
2022/05/24 01:43:54;;;;;;;10.73;5.78;;;12.70;99.90;;;;;;4960082;28;201090;-67
2022/05/24 01:46:26;;;;;;;13.30;5.90;;;12.70;99.90;;;;;;4981873;28;238054;-66
2022/05/24 01:48:59;;;;;;;11.15;6.10;;;12.70;99.90;;;;;;4963286;28;206508;-66
2022/05/24 01:51:33;;;;;;;12.32;5.70;;;12.80;99.90;;;;;;4976636;28;20049;-67
2022/05/24 01:54:03;;;;;;;14.10;6.13;;;12.70;99.90;;;;;;4954794;28;206068;-66
2022/05/24 01:56:40;;;;;;;11.70;5.70;;;12.70;99.90;;;;;;4988085;28;20192;-67
2022/05/24 01:59:08;;;;;;;14.70;5.85;;;12.80;99.90;;;;;;4935414;28;206895;-66
2022/05/24 02:01:40;;;;;;;11.38;5.60;;;12.80;99.90;;;;;;4992481;28;20069;-68
2022/05/24 02:04:07;;;;;;;12.00;5.63;;;12.80;99.90;;;;;;4928093;28;178891;-65
2022/05/24 02:06:34;;;;;;;13.80;5.78;;;12.80;99.90;;;;;;4954113;28;20653;-66
2022/05/24 02:09:04;;;;;;;13.07;6.28;;;12.80;99.90;;;;;;4935616;28;209591;-65
2022/05/24 02:11:31;;;;;;;10.98;6.18;;;12.80;99.90;;;;;;5011291;28;20050;-64
2022/05/24 02:14:17;;;;;;;12.98;6.45;;;12.90;99.90;;;;;;4959863;28;206638;-67
2022/05/24 02:17:03;;;;;;;12.45;7.05;;;12.90;99.90;;;;;;4952438;28;20051;-66
2022/05/24 02:19:32;;;;;;;14.57;7.65;;;12.90;99.90;;;;;;4933831;28;212310;-67
2022/05/24 02:22:02;;;;;;;14.90;7.50;;;12.90;99.90;;;;;;4985860;28;20058;-67
2022/05/24 02:24:28;;;;;;;15.88;7.97;;;13.00;99.90;;;;;;4923260;28;216497;-66
2022/05/24 02:26:54;;;;;;;17.92;8.65;;;13.00;99.90;;;;;;5003561;28;20073;-67
2022/05/24 02:29:22;;;;;;;14.40;9.32;;;13.00;99.90;;;;;;4930876;28;212421;-67
2022/05/24 02:31:50;;;;;;;15.77;9.25;;;13.00;99.90;;;;;;4994153;28;20046;-65
2022/05/24 02:34:16;;;;;;;16.90;10.30;;;13.00;99.90;;;;;;4924664;28;237841;-68
2022/05/24 02:36:42;;;;;;;15.18;10.00;;;13.00;99.90;;;;;;4983152;28;20077;-67
2022/05/24 02:39:09;;;;;;;18.58;10.93;;;13.00;99.90;;;;;;4931636;28;210557;-68
2022/05/24 02:41:36;;;;;;;20.52;12.45;;;13.00;99.90;;;;;;4991357;28;20599;-67
2022/05/24 02:44:09;;;;;;;17.15;12.05;;;13.10;99.90;;;;;;4927567;28;211804;-67
2022/05/24 02:46:44;;;;;;;20.33;12.82;;;13.10;99.90;;;;;;4992069;28;20058;-67
2022/05/24 02:49:10;;;;;;;20.02;13.50;;;13.10;99.90;;;;;;4929339;28;216465;-66
2022/05/24 02:51:38;;;;;;;23.25;14.55;;;13.10;99.90;;;;;;5001219;28;20054;-68
2022/05/24 02:54:05;;;;;;;22.48;14.35;;;13.10;99.90;;;;;;4938933;28;170134;-67
2022/05/24 02:56:32;;;;;;;20.92;14.57;;;13.10;99.90;;;;;;4999958;28;20527;-68
2022/05/24 02:58:58;;;;;;;23.67;15.90;;;13.10;99.90;;;;;;4935837;28;213572;-67
2022/05/24 03:01:28;;;;;;;24.25;15.90;;;13.20;99.90;;;;;;4958536;28;20085;-67
2022/05/24 03:03:55;;;;;;;23.75;16.70;;;13.20;99.90;;;;;;4933656;28;203117;-66
2022/05/24 03:06:23;;;;;;;27.52;18.58;;;13.20;99.90;;;;;;4924479;28;139715;-65
2022/05/24 03:14:21;;;;;;;26.40;19.55;;;13.30;99.90;;;;;;4948923;28;209099;-67
2022/05/24 03:16:49;;;;;;;31.60;21.85;;;13.30;99.90;;;;;;4984479;28;20054;-68
2022/05/24 03:19:16;;;;;;;33.70;21.98;;;13.30;99.90;;;;;;4926745;28;242852;-68
2022/05/24 03:21:43;;;;;;;32.38;21.40;;;13.30;99.90;;;;;;4995342;28;20047;-68
2022/05/24 03:24:09;;;;;;;32.20;21.67;;;13.30;99.90;;;;;;4914744;28;218877;-67
2022/05/24 03:26:37;;;;;;;33.22;22.67;;;13.30;99.90;;;;;;4946416;28;20507;-67
2022/05/24 03:29:05;;;;;;;32.53;23.17;;;13.40;99.90;;;;;;4918205;28;240517;-67
2022/05/24 03:31:32;;;;;;;32.90;23.65;;;13.30;99.90;;;;;;4982607;28;20058;-67
2022/05/24 03:33:58;;;;;;;37.85;25.05;;;13.40;99.90;;;;;;4940302;28;211017;-67
2022/05/24 03:36:24;;;;;;;34.92;24.52;;;13.40;99.90;;;;;;4975569;28;20061;-67
2022/05/24 03:38:51;;;;;;;34.85;25.77;;;13.40;99.90;;;;;;4936234;28;219477;-67
2022/05/24 03:41:17;;;;;;;40.42;26.00;;;13.50;99.90;;;;;;4983164;28;89026;-67
2022/05/24 03:43:43;;;;;;;38.72;26.38;;;13.40;99.90;;;;;;4931623;28;211464;-68
2022/05/24 03:46:11;;;;;;;39.33;27.30;;;13.50;99.90;;;;;;4985711;28;38168;-66
2022/05/24 03:48:37;;;;;;;40.20;27.40;;;13.50;99.90;;;;;;4934647;28;210041;-68
2022/05/24 03:51:04;;;;;;;37.08;27.73;;;13.50;99.90;;;;;;4978073;28;102642;-68
2022/05/24 03:53:30;;;;;;;38.90;28.27;;;13.50;99.90;;;;;;4930878;28;218485;-68
2022/05/24 03:55:56;;;;;;;38.42;27.73;;;13.50;99.90;;;;;;4970649;28;172857;-67
2022/05/24 03:58:23;;;;;;;37.00;27.48;;;13.50;99.90;;;;;;4959671;28;210942;-68
2022/05/24 04:00:50;;;;;;;34.33;25.67;;;13.60;99.90;;;;;;4961334;28;200343;-67
2022/05/24 04:03:17;;;;;;;35.15;26.00;;;13.60;99.90;;;;;;5007005;28;20057;-68
2022/05/24 04:05:44;;;;;;;36.53;25.52;;;13.60;99.90;;;;;;4924530;28;205999;-66
2022/05/24 04:08:10;;;;;;;33.17;24.85;;;13.60;99.90;;;;;;4966412;28;20707;-65
2022/05/24 04:10:37;;;;;;;33.38;24.83;;;13.60;99.90;;;;;;4971306;28;211764;-68
2022/05/24 04:13:04;;;;;;;35.05;25.35;;;13.60;99.90;;;;;;4991827;28;20041;-68
2022/05/24 04:15:30;;;;;;;34.28;24.73;;;13.60;99.90;;;;;;4940100;28;210262;-68
2022/05/24 04:17:57;;;;;;;35.55;24.55;;;13.70;99.90;;;;;;4981497;28;20061;-68
2022/05/24 04:20:25;;;;;;;33.20;24.05;;;13.70;99.90;;;;;;4938204;28;236492;-69
2022/05/24 04:22:53;;;;;;;30.35;22.25;;;13.70;99.90;;;;;;4977608;28;20043;-69
2022/05/24 04:25:20;;;;;;;32.67;21.88;;;13.70;99.90;;;;;;4919378;28;215772;-69
2022/05/24 04:27:47;;;;;;;29.70;21.13;;;13.70;99.90;;;;;;4969410;28;20077;-69
2022/05/24 04:30:14;;;;;;;27.92;20.30;;;13.70;99.90;;;;;;4934394;28;246902;-70
2022/05/24 04:32:42;;;;;;;30.50;20.38;;;13.70;99.90;;;;;;4982660;28;20384;-69
2022/05/24 04:35:09;;;;;;;29.98;21.40;;;13.70;99.90;;;;;;4922671;28;238418;-69
2022/05/24 04:37:35;;;;;;;28.83;20.85;;;13.80;99.90;;;;;;4978971;28;20053;-67
2022/05/24 04:40:03;;;;;;;29.77;21.25;;;13.80;99.90;;;;;;4925539;28;209526;-70
2022/05/24 04:42:29;;;;;;;27.48;20.75;;;13.80;99.90;;;;;;4976350;28;20472;-69
2022/05/24 04:44:59;;;;;;;28.33;18.80;;;13.80;99.90;;;;;;4935702;28;213652;-69
2022/05/24 04:47:28;;;;;;;29.52;19.85;;;13.80;99.90;;;;;;4979254;28;20046;-69
2022/05/24 04:49:56;;;;;;;27.75;19.30;;;13.90;99.90;;;;;;4940246;28;213501;-68
2022/05/24 04:52:25;;;;;;;28.35;19.50;;;13.80;99.90;;;;;;4980150;28;20456;-68
2022/05/24 04:54:52;;;;;;;30.38;19.02;;;13.80;99.90;;;;;;4938426;28;213148;-69
2022/05/24 04:57:20;;;;;;;28.35;18.73;;;13.90;99.90;;;;;;4987175;28;20330;-68
2022/05/24 04:59:47;;;;;;;28.33;17.70;;;13.90;99.90;;;;;;4942877;28;210685;-68
2022/05/24 05:02:13;;;;;;;28.95;18.42;;;13.90;99.90;;;;;;4983935;28;20062;-68
2022/05/24 05:04:39;;;;;;;29.77;19.00;;;13.90;99.90;;;;;;4911239;28;244295;-69
2022/05/24 05:07:06;;;;;;;27.48;18.35;;;14.00;99.90;;;;;;4968834;28;20363;-68
2022/05/24 05:09:37;;;;;;;29.27;18.52;;;14.00;99.90;;;;;;4938541;28;209850;-68
2022/05/24 05:12:06;;;;;;;27.05;18.15;;;13.90;99.90;;;;;;4981891;28;20372;-68
2022/05/24 05:14:33;;;;;;;28.70;18.17;;;13.90;99.90;;;;;;4931585;28;205556;-68
2022/05/24 05:17:00;;;;;;;25.33;17.50;;;14.00;99.90;;;;;;4990487;28;20050;-68
2022/05/24 05:19:27;;;;;;;28.02;18.20;;;14.00;99.90;;;;;;4927951;28;217795;-68
2022/05/24 05:21:54;;;;;;;25.40;17.73;;;14.10;99.90;;;;;;4990585;28;20035;-68
2022/05/24 05:24:21;;;;;;;26.30;17.70;;;14.10;99.90;;;;;;4957769;28;187880;-68
2022/05/24 05:26:47;;;;;;;26.65;17.73;;;14.10;99.90;;;;;;4990076;28;20065;-68
2022/05/24 05:29:13;;;;;;;30.60;19.17;;;14.10;99.90;;;;;;4924877;28;214487;-67
2022/05/24 05:31:40;;;;;;;30.50;19.98;;;14.10;99.90;;;;;;4973318;28;20480;-67
2022/05/24 05:34:06;;;;;;;27.40;19.05;;;14.10;99.90;;;;;;4912850;28;218919;-68
2022/05/24 05:36:33;;;;;;;29.55;19.52;;;14.10;99.90;;;;;;4974222;28;20069;-68
2022/05/24 05:39:00;;;;;;;29.55;18.20;;;14.10;99.90;;;;;;4919982;28;212914;-68
2022/05/24 05:41:29;;;;;;;29.15;17.77;;;14.10;99.90;;;;;;4981499;28;20423;-68
2022/05/24 05:43:57;;;;;;;28.17;18.40;;;14.10;99.90;;;;;;4936783;28;212008;-68
2022/05/24 05:46:23;;;;;;;28.08;18.45;;;14.10;99.90;;;;;;4968345;28;70328;-67
2022/05/24 05:48:49;;;;;;;29.55;18.45;;;14.10;99.90;;;;;;4937173;28;210513;-67
2022/05/24 05:51:18;;;;;;;27.92;18.00;;;14.20;99.90;;;;;;4971486;28;255431;-67
2022/05/24 05:53:44;;;;;;;26.08;17.10;;;14.20;99.90;;;;;;4940408;28;212268;-68
2022/05/24 05:56:17;;;;;;;27.45;16.23;;;14.10;99.90;;;;;;4984283;28;151710;-67
2022/05/24 05:58:44;;;;;;;27.55;17.35;;;14.10;99.90;;;;;;4936225;28;214087;-69
2022/05/24 06:01:21;;;;;;;28.25;17.38;;;14.20;99.90;;;;;;4993224;28;248944;-69
2022/05/24 06:03:47;;;;;;;23.90;16.17;;;14.20;99.90;;;;;;4936546;28;210238;-69
2022/05/24 06:06:21;;;;;;;28.80;15.65;;;14.20;99.90;;;;;;4970893;28;279435;-67
2022/05/24 06:08:47;;;;;;;28.33;16.60;;;14.20;99.90;;;;;;4945687;28;210011;-69
2022/05/24 06:11:14;;;;;;;27.05;15.60;;;14.10;99.90;;;;;;4964650;28;279811;-68
2022/05/24 06:13:40;;;;;;;27.48;15.90;;;14.20;99.90;;;;;;4946810;28;219068;-68
2022/05/24 06:16:06;;;;;;;25.88;15.38;;;14.30;99.90;;;;;;4990581;28;147026;-68
2022/05/24 06:18:32;;;;;;;27.88;15.38;;;14.30;99.90;;;;;;4957489;28;218293;-69
2022/05/24 06:20:58;;;;;;;22.75;14.45;;;14.40;99.90;;;;;;4973145;28;136688;-68
2022/05/24 06:23:25;;;;;;;25.15;14.57;;;14.50;99.90;;;;;;4951210;28;206197;-68
2022/05/24 06:25:51;;;;;;;27.10;14.48;;;14.60;99.90;;;;;;4956710;28;207043;-68
2022/05/24 06:28:17;;;;;;;24.38;14.05;;;14.70;99.90;;;;;;4983363;28;20057;-68
2022/05/24 06:30:44;;;;;;;27.00;13.68;;;14.70;99.90;;;;;;4953065;28;207369;-68
2022/05/24 06:33:11;;;;;;;25.00;13.77;;;14.60;99.90;;;;;;4997208;28;20042;-68
2022/05/24 06:35:38;;;;;;;23.05;13.10;;;14.60;99.90;;;;;;4936889;28;209552;-67
2022/05/24 06:38:05;;;;;;;24.98;13.82;;;14.50;99.90;;;;;;4985489;28;20386;-69
2022/05/24 06:40:31;;;;;;;21.17;12.38;;;14.50;99.90;;;;;;4961341;28;210022;-68
2022/05/24 06:42:57;;;;;;;23.10;12.50;;;14.60;99.90;;;;;;4982280;28;20055;-67
2022/05/24 06:45:23;;;;;;;21.10;12.35;;;14.60;99.90;;;;;;4945304;28;252768;-67
2022/05/24 06:47:50;;;;;;;22.05;12.13;;;14.60;99.90;;;;;;4991391;28;20050;-67
2022/05/24 06:50:17;;;;;;;22.83;12.02;;;14.60;99.90;;;;;;4946542;28;215630;-67
2022/05/24 06:52:43;;;;;;;25.70;11.85;;;14.70;99.90;;;;;;4980639;28;20042;-67
2022/05/24 06:55:11;;;;;;;20.63;11.90;;;14.70;99.90;;;;;;4942358;28;211131;-67
2022/05/24 06:57:37;;;;;;;18.67;11.48;;;14.70;99.90;;;;;;4978577;28;20058;-67
2022/05/24 07:03:02;;;;;;;21.63;12.35;;;14.70;99.90;;;;;;4984122;28;20046;-67
2022/05/24 07:05:29;;;;;;;18.95;11.20;;;14.70;99.90;;;;;;4929011;28;210147;-67
2022/05/24 07:07:59;;;;;;;21.67;11.77;;;14.70;99.90;;;;;;4986013;28;20063;-68
2022/05/24 07:10:25;;;;;;;19.63;11.35;;;14.80;99.90;;;;;;4953464;28;209583;-68
2022/05/24 07:13:04;;;;;;;23.90;11.32;;;14.70;99.90;;;;;;5019137;28;20066;-68
2022/05/24 07:15:31;;;;;;;20.75;11.52;;;14.80;99.90;;;;;;4947968;28;234345;-68
2022/05/24 07:17:58;;;;;;;20.45;11.02;;;14.80;99.90;;;;;;4983392;28;20074;-67
2022/05/24 07:20:25;;;;;;;23.52;11.13;;;14.90;99.90;;;;;;4943383;28;212681;-68
2022/05/24 07:22:54;;;;;;;19.42;11.05;;;14.90;99.90;;;;;;4984154;28;20042;-68
2022/05/24 07:25:21;;;;;;;21.42;10.70;;;14.90;99.90;;;;;;4942804;28;210419;-68
2022/05/24 07:27:48;;;;;;;23.08;10.57;;;14.80;99.90;;;;;;4985842;28;20055;-68
2022/05/24 07:30:14;;;;;;;23.08;10.73;;;14.80;99.90;;;;;;4956428;28;210211;-68
2022/05/24 07:32:40;;;;;;;18.90;11.27;;;14.80;99.90;;;;;;4979605;28;20460;-68
2022/05/24 07:35:06;;;;;;;23.05;11.07;;;14.70;99.90;;;;;;4935759;28;181924;-68
2022/05/24 07:37:32;;;;;;;19.25;10.60;;;14.60;99.90;;;;;;4981067;28;20067;-68
2022/05/24 07:48:13;;;;;;;19.30;10.77;;;14.50;99.90;;;;;;4997269;28;20046;-68
2022/05/24 07:50:40;;;;;;;24.88;11.40;;;14.40;99.90;;;;;;4932881;28;178351;-68
2022/05/24 07:53:06;;;;;;;19.77;10.80;;;14.40;99.90;;;;;;4982997;28;20069;-67
2022/05/24 07:55:32;;;;;;;19.88;10.73;;;14.40;99.90;;;;;;4952824;28;209995;-68
2022/05/24 07:57:59;;;;;;;18.85;10.35;;;14.50;99.90;;;;;;4989114;28;20503;-67
2022/05/24 08:00:25;;;;;;;22.13;10.18;;;14.60;99.90;;;;;;4934374;28;212292;-67
2022/05/24 08:02:53;;;;;;;22.73;9.98;;;14.70;99.90;;;;;;4990197;28;20034;-66
2022/05/24 08:05:20;;;;;;;22.42;10.60;;;14.80;99.90;;;;;;4928193;28;240688;-67
2022/05/24 08:07:49;;;;;;;17.08;10.02;;;14.90;99.90;;;;;;4990702;28;20080;-67
2022/05/24 08:10:16;;;;;;;18.80;10.05;;;14.90;99.90;;;;;;4950715;28;208803;-67
2022/05/24 08:12:42;;;;;;;18.23;9.70;;;15.00;99.90;;;;;;4990943;28;20035;-67
2022/05/24 08:15:10;;;;;;;18.92;9.10;;;15.20;99.90;;;;;;4950743;28;116042;-67
2022/05/24 08:17:36;;;;;;;22.40;9.65;;;15.30;99.90;;;;;;4992959;28;20058;-68
2022/05/24 08:20:04;;;;;;;18.85;9.10;;;15.30;99.90;;;;;;4930720;28;248491;-69
2022/05/24 08:22:30;;;;;;;16.52;9.05;;;15.40;99.90;;;;;;4976824;28;20540;-68
2022/05/24 08:24:57;;;;;;;19.42;9.55;;;15.50;99.90;;;;;;4942328;28;209754;-68
2022/05/24 08:27:23;;;;;;;17.17;8.88;;;15.80;99.90;;;;;;4983126;28;20495;-68
2022/05/24 08:29:49;;;;;;;19.63;8.88;;;16.10;99.90;;;;;;4943953;28;218903;-68
2022/05/24 08:32:16;;;;;;;16.38;7.80;;;16.50;99.90;;;;;;4987445;28;20062;-68
2022/05/24 08:34:42;;;;;;;14.63;7.65;;;16.60;99.90;;;;;;4950043;28;207867;-68
2022/05/24 08:37:08;;;;;;;15.18;7.50;;;16.50;99.90;;;;;;4988130;28;20054;-68
2022/05/24 08:39:34;;;;;;;15.20;7.05;;;16.50;99.90;;;;;;4952992;28;209346;-68
2022/05/24 08:42:09;;;;;;;19.42;7.70;;;16.50;99.90;;;;;;4988899;28;20043;-68
2022/05/24 08:50:40;;;;;;;18.38;8.00;;;16.00;99.90;;;;;;4904407;28;206636;-68
2022/05/24 08:53:10;;;;;;;14.75;7.43;;;15.90;99.90;;;;;;4952663;28;20059;-67
2022/05/24 08:55:38;;;;;;;17.77;7.50;;;15.90;99.90;;;;;;4897009;28;206783;-68
2022/05/24 08:58:12;;;;;;;16.60;7.70;;;15.70;99.90;;;;;;4946625;28;20321;-67
2022/05/24 09:00:41;;;;;;;15.82;6.15;;;16.10;99.90;;;;;;4914544;28;213590;-68
2022/05/24 09:03:09;;;;;;;13.75;5.25;;;16.70;99.90;;;;;;4960191;28;20098;-67
2022/05/24 09:05:55;;;;;;;13.18;4.97;;;16.80;99.90;;;;;;4871635;28;217770;-68
2022/05/24 09:08:30;;;;;;;13.13;4.40;;;16.70;99.90;;;;;;4957272;28;60669;-68
2022/05/24 09:11:14;;;;;;;11.32;4.57;;;16.50;99.90;;;;;;4920975;28;205800;-66
2022/05/24 09:14:00;;;;;;;12.15;4.50;;;16.60;99.90;;;;;;4913510;28;212832;-67
2022/05/24 09:16:49;;;;;;;10.52;4.65;;;16.80;99.90;;;;;;4927523;28;20066;-67
2022/05/24 09:19:35;;;;;;;12.10;4.18;;;17.20;99.90;;;;;;4888274;28;204066;-67
2022/05/24 09:22:02;;;;;;;6.82;2.15;;;17.30;99.90;;;;;;4933515;28;20168;-67
2022/05/24 09:24:45;;;;;;;5.00;0.95;;;17.00;99.90;;;;;;4926111;28;206980;-67
2022/05/24 09:27:20;;;;;;;4.70;0.95;;;16.30;99.90;;;;;;4989435;28;20074;-68
2022/05/24 09:30:02;;;;;;;7.68;0.90;;;15.40;99.90;;;;;;4939289;28;152173;-69
2022/05/24 09:32:41;;;;;;;7.70;1.00;;;15.10;99.90;;;;;;4976814;28;20419;-70
2022/05/24 09:35:16;;;;;;;6.68;1.00;;;14.80;99.90;;;;;;4950165;28;219457;-70
2022/05/24 09:37:45;;;;;;;4.20;0.93;;;14.60;99.90;;;;;;5001990;28;20047;-70
2022/05/24 09:40:23;;;;;;;7.63;1.05;;;14.30;99.90;;;;;;4948138;28;212388;-69
2022/05/24 09:42:50;;;;;;;5.57;0.95;;;14.20;99.90;;;;;;4975452;28;20496;-70
2022/05/24 09:45:23;;;;;;;5.05;1.00;;;14.00;99.90;;;;;;4932213;28;213228;-70
2022/05/24 09:47:58;;;;;;;4.35;0.80;;;13.90;99.90;;;;;;4979702;28;20058;-69
2022/05/24 09:50:32;;;;;;;4.55;1.00;;;14.00;99.90;;;;;;4936456;28;210611;-68
2022/05/24 09:53:12;;;;;;;5.03;1.10;;;14.00;99.90;;;;;;4976850;28;20054;-68
2022/05/24 09:55:43;;;;;;;6.65;1.20;;;14.00;99.90;;;;;;4945537;28;230161;-68
2022/05/24 09:58:18;;;;;;;6.75;1.40;;;14.10;99.90;;;;;;4985472;28;20070;-69
2022/05/24 10:01:07;;;;;;;7.68;1.60;;;14.30;99.90;;;;;;4942352;28;213976;-68
2022/05/24 10:03:36;;;;;;;8.83;1.93;;;14.60;99.90;;;;;;4947823;28;209693;-67
2022/05/24 10:06:23;;;;;;;7.25;2.22;;;14.90;99.90;;;;;;4967526;28;129596;-69
2022/05/24 10:09:20;;;;;;;8.20;2.67;;;15.30;99.90;;;;;;4949656;28;217230;-67
2022/05/24 10:11:54;;;;;;;10.35;2.90;;;15.50;99.90;;;;;;4961517;28;20041;-67
2022/05/24 10:14:40;;;;;;;8.43;2.67;;;15.70;99.90;;;;;;4934069;28;207094;-66
2022/05/24 10:17:44;;;;;;;8.52;2.70;;;15.60;99.90;;;;;;4989345;28;20054;-66
2022/05/24 10:20:23;;;;;;;11.35;3.22;;;15.40;99.90;;;;;;4945283;28;213344;-67
2022/05/24 10:23:27;;;;;;;13.57;3.55;;;15.20;99.90;;;;;;4979859;28;20034;-69
2022/05/24 10:26:15;;;;;;;10.23;2.17;;;14.50;99.90;;;;;;4941751;28;206610;-67
2022/05/24 10:28:49;;;;;;;9.53;2.70;;;13.40;99.90;;;;;;4939420;28;210236;-67
2022/05/24 10:31:54;;;;;;;7.88;1.95;;;12.70;99.90;;;;;;4980268;28;126127;-67
2022/05/24 10:38:19;;;;;;;8.07;1.50;;;12.10;99.90;;;;;;4999902;28;20545;-66
2022/05/24 10:41:33;;;;;;;7.28;1.60;;;12.00;99.90;;;;;;4907872;28;255595;-66
2022/05/24 10:44:11;;;;;;;6.68;1.40;;;12.00;99.90;;;;;;4896459;28;119613;-65
2022/05/24 10:46:45;;;;;;;6.20;1.60;;;12.20;99.90;;;;;;4945982;28;20058;-66
2022/05/24 10:49:21;;;;;;;7.88;1.50;;;12.70;99.90;;;;;;4883253;28;216857;-66
2022/05/24 10:52:22;;;;;;;6.45;1.48;;;13.30;99.90;;;;;;4943451;28;20066;-67
2022/05/24 10:54:58;;;;;;;7.80;1.80;;;13.70;99.90;;;;;;4797280;29;210619;-66
2022/05/24 10:57:48;;;;;;;6.72;1.33;;;13.90;99.90;;;;;;4860157;29;20056;-67
2022/05/24 11:00:22;;;;;;;9.05;1.80;;;14.10;99.90;;;;;;4815933;29;205440;-67
2022/05/24 11:03:00;;;;;;;9.23;1.90;;;13.90;99.90;;;;;;4871818;29;20056;-66
2022/05/24 11:05:37;;;;;;;7.75;2.00;;;13.70;99.90;;;;;;4793915;29;259275;-66
2022/05/24 11:08:22;;;;;;;7.82;2.17;;;13.70;99.90;;;;;;4852533;29;20079;-66
2022/05/24 11:10:50;;;;;;;8.20;1.88;;;13.60;99.90;;;;;;4823091;29;186900;-66
2022/05/24 11:13:22;;;;;;;7.05;2.25;;;13.40;99.90;;;;;;4849258;29;20060;-67
2022/05/24 11:15:54;;;;;;;9.05;2.80;;;13.40;99.90;;;;;;4836297;29;123787;-67
2022/05/24 11:18:24;;;;;;;8.05;2.50;;;13.40;99.90;;;;;;4914594;28;99135;-68
2022/05/24 11:20:56;;;;;;;10.52;3.30;;;13.40;99.90;;;;;;4878234;28;238757;-67
2022/05/24 11:23:29;;;;;;;9.18;3.20;;;13.40;99.90;;;;;;4913437;28;158851;-67
2022/05/24 11:26:16;;;;;;;8.02;3.28;;;13.30;99.90;;;;;;4880581;28;185737;-67
2022/05/24 11:28:47;;;;;;;12.23;3.33;;;13.40;99.90;;;;;;4889198;28;206968;-66
2022/05/24 11:31:40;;;;;;;8.57;3.25;;;13.70;99.90;;;;;;4963425;28;274202;-66
2022/05/24 11:34:23;;;;;;;11.05;3.03;;;13.80;99.90;;;;;;4943237;28;241273;-66
2022/05/24 11:37:11;;;;;;;7.95;3.10;;;14.00;99.90;;;;;;4991324;28;20057;-67
2022/05/24 11:39:39;;;;;;;11.38;2.65;;;14.20;99.90;;;;;;4939908;28;210236;-66
2022/05/24 11:42:29;;;;;;;8.20;3.15;;;14.40;99.90;;;;;;4994643;28;20057;-66
2022/05/24 11:45:00;;;;;;;8.90;2.60;;;14.90;99.90;;;;;;4951212;28;209734;-66
2022/05/24 11:47:35;;;;;;;;;;;14.90;99.90;;;;;;5004807;28;20516;-67
2022/05/24 11:50:30;;;;;;;7.80;2.10;;;14.80;99.90;;;;;;4947614;28;206571;-66
2022/05/24 11:53:04;;;;;;;9.80;2.17;;;15.10;99.90;;;;;;4993125;28;20415;-67
2022/05/24 11:55:42;;;;;;;8.00;1.60;;;15.20;99.90;;;;;;4948036;28;209418;-66
2022/05/24 11:58:21;;;;;;;5.03;1.27;;;15.40;99.90;;;;;;4970472;28;20058;-66
2022/05/24 12:01:05;;;;;;;6.00;1.38;;;15.30;99.90;;;;;;4941382;28;207241;-66
2022/05/24 12:09:26;;;;;;;6.45;1.40;;;15.30;99.90;;;;;;4921446;28;251112;-67
2022/05/24 12:12:19;;;;;;;6.15;1.60;;;15.40;99.90;;;;;;4992565;28;20034;-66
2022/05/24 12:14:46;;;;;;;5.50;1.15;;;15.90;99.90;;;;;;4949264;28;206387;-66
2022/05/24 12:17:15;;;;;;;7.10;1.38;;;15.70;99.90;;;;;;4993846;28;20138;-66
2022/05/24 12:19:45;;;;;;;5.22;0.98;;;15.50;99.90;;;;;;4955061;28;210457;-66
2022/05/24 12:22:16;;;;;;;9.18;1.63;;;15.20;99.90;;;;;;5000239;28;20057;-67
2022/05/24 12:24:47;;;;;;;4.97;1.23;;;15.10;99.90;;;;;;4924424;28;189095;-68
2022/05/24 12:27:22;;;;;;;7.30;1.35;;;15.40;99.90;;;;;;4982153;28;20058;-67
2022/05/24 12:30:23;;;;;;;6.85;1.33;;;16.00;99.90;;;;;;4939461;28;212442;-66
2022/05/24 12:32:51;;;;;;;6.03;1.27;;;16.80;99.90;;;;;;4947456;28;20061;-65
2022/05/24 12:35:19;;;;;;;6.88;1.10;;;16.50;99.90;;;;;;4875230;28;237711;-67
2022/05/24 12:37:51;;;;;;;4.85;0.90;;;15.80;99.90;;;;;;4937399;28;20319;-67
2022/05/24 12:40:18;;;;;;;4.47;0.90;;;15.10;99.90;;;;;;4884470;28;205941;-67
2022/05/24 12:42:51;;;;;;;7.70;1.08;;;14.70;99.90;;;;;;4921430;28;20052;-65
2022/05/24 12:45:32;;;;;;;7.88;1.10;;;14.60;99.90;;;;;;4886676;28;205793;-66
2022/05/24 12:47:58;;;;;;;5.38;1.00;;;14.80;99.90;;;;;;4946720;28;20067;-67
2022/05/24 12:50:45;;;;;;;6.20;1.30;;;14.80;99.90;;;;;;4879234;28;195397;-68
2022/05/24 12:53:13;;;;;;;5.53;1.17;;;15.00;99.90;;;;;;4940456;28;20051;-67
2022/05/24 12:55:56;;;;;;;5.35;1.20;;;15.50;99.90;;;;;;4888533;28;206863;-65
2022/05/24 12:58:31;;;;;;;8.55;1.40;;;16.10;99.90;;;;;;4937308;28;20062;-66
2022/05/24 13:01:18;;;;;;;7.78;1.48;;;16.30;99.90;;;;;;4887444;29;166056;-68
2022/05/24 13:03:46;;;;;;;6.78;1.38;;;16.50;99.90;;;;;;4902218;28;206340;-67
2022/05/24 13:06:23;;;;;;;7.80;1.65;;;16.70;99.90;;;;;;4901981;28;223581;-65
2022/05/24 13:09:12;;;;;;;9.60;1.50;;;17.00;99.90;;;;;;4910025;28;207139;-67
2022/05/24 13:11:40;;;;;;;10.30;1.63;;;16.90;99.90;;;;;;4966477;28;20551;-66
2022/05/24 13:14:15;;;;;;;8.90;1.50;;;16.50;99.90;;;;;;4939146;28;213785;-66
2022/05/24 13:16:42;;;;;;;8.68;1.70;;;16.50;99.90;;;;;;4989615;28;20502;-66
2022/05/24 13:19:08;;;;;;;6.63;1.55;;;16.40;99.90;;;;;;4950841;28;206916;-65
2022/05/24 13:21:35;;;;;;;7.93;1.75;;;16.10;99.90;;;;;;4997192;28;20061;-64
2022/05/24 13:24:15;;;;;;;7.68;1.83;;;16.00;99.90;;;;;;4922329;28;223540;-65
2022/05/24 13:27:03;;;;;;;7.38;1.90;;;15.80;99.90;;;;;;4984136;28;20587;-65
2022/05/24 13:29:29;;;;;;;8.80;1.80;;;15.80;99.90;;;;;;4927138;28;218229;-65